Chitose — JD2925 — position and weather

sailwx.info

Track history (hours):
 
Tides and Currents Weather Stations Pressure Air Temp Water Temp Dewpoint Dewpoint Depression Visibility Wind Speed Wind Dir Waves Ship Positions

Chitose

Last reported at 2015-Apr-27 22:33 UTC. Time now 2015-Apr-28 10:20 UTC.
Position N 35°27' E 139°41'.

Length 33 m; draft 3.8 m.

Type: Tug. MMSI: 431000953.

Date/timePositionNaut miles runAvg speedWind from/ knotsBaromVisibWave heightAir tempDewpointWater temp
2015-Apr-27 22:33N 35°27' E 139°41'6 5.8
2015-Apr-27 21:33N 35°31' E 139°46'1 1.1
2015-Apr-27 20:33N 35°30' E 139°46'1 1.1
2015-Apr-27 19:33N 35°30' E 139°47'5 4.8
2015-Apr-27 18:33N 35°28' E 139°42'0 0.3
2015-Apr-27 17:33N 35°28' E 139°42'2 1.6
2015-Apr-27 16:33N 35°26' E 139°41'1 1.0
2015-Apr-27 15:33N 35°27' E 139°42'0 0.0
2015-Apr-27 14:34N 35°27' E 139°42'1 0.9
2015-Apr-27 13:33N 35°27' E 139°41'3 2.8
2015-Apr-27 12:34N 35°27' E 139°44'2 1.8
2015-Apr-27 11:34N 35°28' E 139°42'1 0.5
2015-Apr-27 10:33N 35°28' E 139°41'3 2.8
2015-Apr-27 09:34N 35°27' E 139°45'4 4.3
2015-Apr-27 08:33N 35°27' E 139°39'2 2.4
2015-Apr-27 07:33N 35°29' E 139°42'2 2.3
2015-Apr-27 06:33N 35°27' E 139°39'0 0.0
2015-Apr-27 05:34N 35°27' E 139°39'0 0.0
2015-Apr-27 04:33N 35°27' E 139°39'1 1.5
2015-Apr-27 03:33N 35°28' E 139°39'2 1.7
2015-Apr-27 02:33N 35°27' E 139°40'0 0.0
2015-Apr-27 01:33N 35°27' E 139°40'0 0.0
2015-Apr-27 00:33N 35°27' E 139°40'0 0.0
2015-Apr-26 23:34N 35°27' E 139°40'0 0.0
2015-Apr-26 22:34N 35°27' E 139°40'0 0.0
2015-Apr-26 21:33N 35°27' E 139°40'0 0.0
2015-Apr-26 20:33N 35°27' E 139°40'0 0.0
2015-Apr-26 19:33N 35°27' E 139°40'0 0.0
2015-Apr-26 05:15N 35°27' E 139°40'6 8.8
2015-Apr-26 04:33N 35°29' E 139°46'4 4.0
2015-Apr-26 03:33N 35°29' E 139°42'2 2.3
2015-Apr-26 02:33N 35°27' E 139°39'0 0.0
2015-Apr-26 01:33N 35°27' E 139°39'0 0.0
2015-Apr-26 00:33N 35°27' E 139°39'0 0.0
2015-Apr-25 23:33N 35°27' E 139°39'2 2.2
2015-Apr-25 22:33N 35°25' E 139°41'1 1.1
2015-Apr-25 21:33N 35°25' E 139°42'3 3.0
2015-Apr-25 20:33N 35°27' E 139°40'1 0.0
2015-Apr-25 09:13N 35°27' E 139°40'7 9.9
2015-Apr-25 08:33N 35°30' E 139°47'5 5.0
2015-Apr-25 07:33N 35°28' E 139°42'1 0.8
2015-Apr-25 06:33N 35°27' E 139°41'1 0.6
2015-Apr-25 05:33N 35°27' E 139°42'0 0.5
2015-Apr-25 04:33N 35°26' E 139°42'2 2.2
2015-Apr-25 03:33N 35°27' E 139°40'0 0.1
2015-Apr-25 02:33N 35°27' E 139°40'0 0.0
2015-Apr-25 01:33N 35°27' E 139°40'0 0.0
2015-Apr-25 00:33N 35°27' E 139°40'0 0.0
2015-Apr-24 23:33N 35°27' E 139°40'2 1.6
2015-Apr-24 22:34N 35°28' E 139°41'2 1.5
2015-Apr-24 21:33N 35°27' E 139°43'3 2.8
2015-Apr-24 20:33N 35°27' E 139°40'0 0.0
2015-Apr-24 08:33N 35°27' E 139°40'1 1.2
2015-Apr-24 07:34N 35°26' E 139°41'1 1.4
2015-Apr-24 06:33N 35°27' E 139°39'0 0.0
2015-Apr-24 05:33N 35°27' E 139°39'2 1.8
2015-Apr-24 04:34N 35°27' E 139°42'2 1.9
2015-Apr-24 03:33N 35°27' E 139°39'0 0.0
2015-Apr-24 02:33N 35°27' E 139°39'0 0.0
2015-Apr-24 01:33N 35°27' E 139°39'0 0.0
2015-Apr-24 00:33N 35°27' E 139°39'0 0.5
2015-Apr-23 23:33N 35°27' E 139°39'4 3.8
2015-Apr-23 22:33N 35°26' E 139°43'1 1.3
2015-Apr-23 21:33N 35°26' E 139°42'1 0.8
2015-Apr-23 20:33N 35°26' E 139°41'1 1.2
2015-Apr-23 19:33N 35°27' E 139°40'1 0.1
2015-Apr-23 06:33N 35°28' E 139°40'0 0.0
2015-Apr-23 05:33N 35°28' E 139°40'0 0.0
2015-Apr-23 04:33N 35°28' E 139°40'0 0.0
2015-Apr-23 03:33N 35°28' E 139°40'0 0.0
2015-Apr-23 02:33N 35°28' E 139°40'0 0.0
2015-Apr-23 01:33N 35°28' E 139°40'0 0.0
2015-Apr-23 00:33N 35°28' E 139°40'0 0.0
2015-Apr-22 23:33N 35°28' E 139°40'0 0.0
2015-Apr-22 22:33N 35°28' E 139°40'1 1.3
2015-Apr-22 21:33N 35°27' E 139°42'2 1.7
2015-Apr-22 20:33N 35°27' E 139°39'0 0.0
2015-Apr-22 08:29N 35°27' E 139°40'2 2.2
2015-Apr-22 07:33N 35°26' E 139°42'0 0.5
2015-Apr-22 06:33N 35°26' E 139°42'0 0.0
2015-Apr-22 05:33N 35°26' E 139°42'1 0.9
2015-Apr-22 04:34N 35°27' E 139°41'1 1.1
2015-Apr-22 03:33N 35°27' E 139°40'0 0.0
2015-Apr-22 02:32N 35°27' E 139°40'0 0.0
2015-Apr-22 01:32N 35°27' E 139°40'0 0.0
2015-Apr-22 00:33N 35°27' E 139°40'2 1.7
2015-Apr-21 23:33N 35°28' E 139°41'2 2.3
2015-Apr-21 22:33N 35°27' E 139°44'4 3.8
2015-Apr-21 21:33N 35°27' E 139°40'0 0.0
2015-Apr-21 20:33N 35°27' E 139°40'0 0.0
2015-Apr-21 19:34N 35°27' E 139°40'0 0.0
2015-Apr-21 18:33N 35°27' E 139°40'0 0.0
2015-Apr-21 17:33N 35°27' E 139°40'0 0.0
2015-Apr-21 16:33N 35°27' E 139°40'0 0.0
2015-Apr-21 15:33N 35°27' E 139°40'0 0.0
2015-Apr-21 14:33N 35°27' E 139°40'0 0.0
2015-Apr-21 13:33N 35°27' E 139°40'0 0.0
2015-Apr-21 12:33N 35°27' E 139°40'0 0.0
2015-Apr-21 11:33N 35°27' E 139°40'0 0.0
2015-Apr-21 10:34N 35°27' E 139°40'0 0.0
2015-Apr-21 09:33N 35°27' E 139°40'0 0.0
2015-Apr-21 08:33N 35°27' E 139°40'0 0.0
2015-Apr-21 07:33N 35°27' E 139°40'0 0.0
2015-Apr-21 06:33N 35°27' E 139°40'0 0.0
2015-Apr-21 05:34N 35°27' E 139°40'0 0.0
2015-Apr-21 04:33N 35°27' E 139°40'0 0.0
2015-Apr-21 03:33N 35°27' E 139°40'0 0.0
2015-Apr-21 02:33N 35°27' E 139°40'1 0.7
2015-Apr-21 01:33N 35°27' E 139°40'6 5.5
2015-Apr-21 00:31N 35°29' E 139°47'0 0.2
2015-Apr-20 23:32N 35°29' E 139°47'3 2.8
2015-Apr-20 22:33N 35°31' E 139°46'5 5.3
2015-Apr-20 21:33N 35°28' E 139°41'1 1.5
2015-Apr-20 20:33N 35°27' E 139°40'0 0.0
2015-Apr-20 03:15N 35°27' E 139°40'0 0.3
2015-Apr-20 02:33N 35°27' E 139°39'7 6.8
2015-Apr-20 01:33N 35°31' E 139°46'1 1.1
2015-Apr-20 00:33N 35°30' E 139°47'2 2.5
2015-Apr-19 23:34N 35°28' E 139°47'6 6.1
2015-Apr-19 22:33N 35°27' E 139°40'0 0.0
2015-Apr-19 09:13N 35°27' E 139°40'1 1.9
2015-Apr-19 08:33N 35°26' E 139°41'1 0.8
2015-Apr-19 07:33N 35°27' E 139°42'0 0.0
2015-Apr-19 06:33N 35°27' E 139°42'1 0.8
2015-Apr-19 05:33N 35°28' E 139°42'0 0.0
2015-Apr-19 04:33N 35°28' E 139°42'1 1.3
2015-Apr-19 03:33N 35°28' E 139°41'0 0.0
2015-Apr-19 02:33N 35°28' E 139°41'2 1.7
2015-Apr-19 01:33N 35°26' E 139°42'1 0.6
2015-Apr-19 00:33N 35°26' E 139°42'0 0.2
2015-Apr-18 23:34N 35°26' E 139°42'1 1.4
2015-Apr-18 22:33N 35°26' E 139°43'3 3.2
2015-Apr-18 21:33N 35°27' E 139°40'0 0.0
2015-Apr-18 09:33N 35°27' E 139°40'2 1.9
2015-Apr-18 08:34N 35°27' E 139°42'2 2.3
2015-Apr-18 07:33N 35°27' E 139°39'0 0.1
2015-Apr-18 06:33N 35°27' E 139°40'0 0.0
2015-Apr-18 05:33N 35°27' E 139°40'0 0.0
2015-Apr-18 04:33N 35°27' E 139°40'1 0.7
2015-Apr-18 03:33N 35°27' E 139°40'1 1.0
2015-Apr-18 02:33N 35°28' E 139°40'0 0.0
2015-Apr-18 01:33N 35°28' E 139°40'0 0.0
2015-Apr-18 00:33N 35°28' E 139°40'0 0.0
2015-Apr-17 23:33N 35°28' E 139°40'1 0.8
2015-Apr-17 22:34N 35°28' E 139°41'  
Track history (hours):
 
Tides and Currents Weather Stations Pressure Air Temp Water Temp Dewpoint Dewpoint Depression Visibility Wind Speed Wind Dir Waves Ship Positions

Chitose

Last reported at 2015-Apr-27 22:33 UTC. Time now 2015-Apr-28 10:20 UTC.
Position N 35°27' E 139°41'.

Length 33 m; draft 3.8 m.

Type: Tug. MMSI: 431000953.

Date/timePositionNaut miles runAvg speedWind from/ knotsBaromVisibWave heightAir tempDewpointWater temp
2015-Apr-27 22:33N 35°27' E 139°41'6 5.8
2015-Apr-27 21:33N 35°31' E 139°46'1 1.1
2015-Apr-27 20:33N 35°30' E 139°46'1 1.1
2015-Apr-27 19:33N 35°30' E 139°47'5 4.8
2015-Apr-27 18:33N 35°28' E 139°42'0 0.3
2015-Apr-27 17:33N 35°28' E 139°42'2 1.6
2015-Apr-27 16:33N 35°26' E 139°41'1 1.0
2015-Apr-27 15:33N 35°27' E 139°42'0 0.0
2015-Apr-27 14:34N 35°27' E 139°42'1 0.9
2015-Apr-27 13:33N 35°27' E 139°41'3 2.8
2015-Apr-27 12:34N 35°27' E 139°44'2 1.8
2015-Apr-27 11:34N 35°28' E 139°42'1 0.5
2015-Apr-27 10:33N 35°28' E 139°41'3 2.8
2015-Apr-27 09:34N 35°27' E 139°45'4 4.3
2015-Apr-27 08:33N 35°27' E 139°39'2 2.4
2015-Apr-27 07:33N 35°29' E 139°42'2 2.3
2015-Apr-27 06:33N 35°27' E 139°39'0 0.0
2015-Apr-27 05:34N 35°27' E 139°39'0 0.0
2015-Apr-27 04:33N 35°27' E 139°39'1 1.5
2015-Apr-27 03:33N 35°28' E 139°39'2 1.7
2015-Apr-27 02:33N 35°27' E 139°40'0 0.0
2015-Apr-27 01:33N 35°27' E 139°40'0 0.0
2015-Apr-27 00:33N 35°27' E 139°40'0 0.0
2015-Apr-26 23:34N 35°27' E 139°40'0 0.0
2015-Apr-26 22:34N 35°27' E 139°40'0 0.0
2015-Apr-26 21:33N 35°27' E 139°40'0 0.0
2015-Apr-26 20:33N 35°27' E 139°40'0 0.0
2015-Apr-26 19:33N 35°27' E 139°40'0 0.0
2015-Apr-26 05:15N 35°27' E 139°40'6 8.8
2015-Apr-26 04:33N 35°29' E 139°46'4 4.0
2015-Apr-26 03:33N 35°29' E 139°42'2 2.3
2015-Apr-26 02:33N 35°27' E 139°39'0 0.0
2015-Apr-26 01:33N 35°27' E 139°39'0 0.0
2015-Apr-26 00:33N 35°27' E 139°39'0 0.0
2015-Apr-25 23:33N 35°27' E 139°39'2 2.2
2015-Apr-25 22:33N 35°25' E 139°41'1 1.1
2015-Apr-25 21:33N 35°25' E 139°42'3 3.0
2015-Apr-25 20:33N 35°27' E 139°40'1 0.0
2015-Apr-25 09:13N 35°27' E 139°40'7 9.9
2015-Apr-25 08:33N 35°30' E 139°47'5 5.0
2015-Apr-25 07:33N 35°28' E 139°42'1 0.8
2015-Apr-25 06:33N 35°27' E 139°41'1 0.6
2015-Apr-25 05:33N 35°27' E 139°42'0 0.5
2015-Apr-25 04:33N 35°26' E 139°42'2 2.2
2015-Apr-25 03:33N 35°27' E 139°40'0 0.1
2015-Apr-25 02:33N 35°27' E 139°40'0 0.0
2015-Apr-25 01:33N 35°27' E 139°40'0 0.0
2015-Apr-25 00:33N 35°27' E 139°40'0 0.0
2015-Apr-24 23:33N 35°27' E 139°40'2 1.6
2015-Apr-24 22:34N 35°28' E 139°41'2 1.5
2015-Apr-24 21:33N 35°27' E 139°43'3 2.8
2015-Apr-24 20:33N 35°27' E 139°40'0 0.0
2015-Apr-24 08:33N 35°27' E 139°40'1 1.2
2015-Apr-24 07:34N 35°26' E 139°41'1 1.4
2015-Apr-24 06:33N 35°27' E 139°39'0 0.0
2015-Apr-24 05:33N 35°27' E 139°39'2 1.8
2015-Apr-24 04:34N 35°27' E 139°42'2 1.9
2015-Apr-24 03:33N 35°27' E 139°39'0 0.0
2015-Apr-24 02:33N 35°27' E 139°39'0 0.0
2015-Apr-24 01:33N 35°27' E 139°39'0 0.0
2015-Apr-24 00:33N 35°27' E 139°39'0 0.5
2015-Apr-23 23:33N 35°27' E 139°39'4 3.8
2015-Apr-23 22:33N 35°26' E 139°43'1 1.3
2015-Apr-23 21:33N 35°26' E 139°42'1 0.8
2015-Apr-23 20:33N 35°26' E 139°41'1 1.2
2015-Apr-23 19:33N 35°27' E 139°40'1 0.1
2015-Apr-23 06:33N 35°28' E 139°40'0 0.0
2015-Apr-23 05:33N 35°28' E 139°40'0 0.0
2015-Apr-23 04:33N 35°28' E 139°40'0 0.0
2015-Apr-23 03:33N 35°28' E 139°40'0 0.0
2015-Apr-23 02:33N 35°28' E 139°40'0 0.0
2015-Apr-23 01:33N 35°28' E 139°40'0 0.0
2015-Apr-23 00:33N 35°28' E 139°40'0 0.0
2015-Apr-22 23:33N 35°28' E 139°40'0 0.0
2015-Apr-22 22:33N 35°28' E 139°40'1 1.3
2015-Apr-22 21:33N 35°27' E 139°42'2 1.7
2015-Apr-22 20:33N 35°27' E 139°39'0 0.0
2015-Apr-22 08:29N 35°27' E 139°40'2 2.2
2015-Apr-22 07:33N 35°26' E 139°42'0 0.5
2015-Apr-22 06:33N 35°26' E 139°42'0 0.0
2015-Apr-22 05:33N 35°26' E 139°42'1 0.9
2015-Apr-22 04:34N 35°27' E 139°41'1 1.1
2015-Apr-22 03:33N 35°27' E 139°40'0 0.0
2015-Apr-22 02:32N 35°27' E 139°40'0 0.0
2015-Apr-22 01:32N 35°27' E 139°40'0 0.0
2015-Apr-22 00:33N 35°27' E 139°40'2 1.7
2015-Apr-21 23:33N 35°28' E 139°41'2 2.3
2015-Apr-21 22:33N 35°27' E 139°44'4 3.8
2015-Apr-21 21:33N 35°27' E 139°40'0 0.0
2015-Apr-21 20:33N 35°27' E 139°40'0 0.0
2015-Apr-21 19:34N 35°27' E 139°40'0 0.0
2015-Apr-21 18:33N 35°27' E 139°40'0 0.0
2015-Apr-21 17:33N 35°27' E 139°40'0 0.0
2015-Apr-21 16:33N 35°27' E 139°40'0 0.0
2015-Apr-21 15:33N 35°27' E 139°40'0 0.0
2015-Apr-21 14:33N 35°27' E 139°40'0 0.0
2015-Apr-21 13:33N 35°27' E 139°40'0 0.0
2015-Apr-21 12:33N 35°27' E 139°40'0 0.0
2015-Apr-21 11:33N 35°27' E 139°40'0 0.0
2015-Apr-21 10:34N 35°27' E 139°40'0 0.0
2015-Apr-21 09:33N 35°27' E 139°40'0 0.0
2015-Apr-21 08:33N 35°27' E 139°40'0 0.0
2015-Apr-21 07:33N 35°27' E 139°40'0 0.0
2015-Apr-21 06:33N 35°27' E 139°40'0 0.0
2015-Apr-21 05:34N 35°27' E 139°40'0 0.0
2015-Apr-21 04:33N 35°27' E 139°40'0 0.0
2015-Apr-21 03:33N 35°27' E 139°40'0 0.0
2015-Apr-21 02:33N 35°27' E 139°40'1 0.7
2015-Apr-21 01:33N 35°27' E 139°40'6 5.5
2015-Apr-21 00:31N 35°29' E 139°47'0 0.2
2015-Apr-20 23:32N 35°29' E 139°47'3 2.8
2015-Apr-20 22:33N 35°31' E 139°46'5 5.3
2015-Apr-20 21:33N 35°28' E 139°41'1 1.5
2015-Apr-20 20:33N 35°27' E 139°40'0 0.0
2015-Apr-20 03:15N 35°27' E 139°40'0 0.3
2015-Apr-20 02:33N 35°27' E 139°39'7 6.8
2015-Apr-20 01:33N 35°31' E 139°46'1 1.1
2015-Apr-20 00:33N 35°30' E 139°47'2 2.5
2015-Apr-19 23:34N 35°28' E 139°47'6 6.1
2015-Apr-19 22:33N 35°27' E 139°40'0 0.0
2015-Apr-19 09:13N 35°27' E 139°40'1 1.9
2015-Apr-19 08:33N 35°26' E 139°41'1 0.8
2015-Apr-19 07:33N 35°27' E 139°42'0 0.0
2015-Apr-19 06:33N 35°27' E 139°42'1 0.8
2015-Apr-19 05:33N 35°28' E 139°42'0 0.0
2015-Apr-19 04:33N 35°28' E 139°42'1 1.3
2015-Apr-19 03:33N 35°28' E 139°41'0 0.0
2015-Apr-19 02:33N 35°28' E 139°41'2 1.7
2015-Apr-19 01:33N 35°26' E 139°42'1 0.6
2015-Apr-19 00:33N 35°26' E 139°42'0 0.2
2015-Apr-18 23:34N 35°26' E 139°42'1 1.4
2015-Apr-18 22:33N 35°26' E 139°43'3 3.2
2015-Apr-18 21:33N 35°27' E 139°40'0 0.0
2015-Apr-18 09:33N 35°27' E 139°40'2 1.9
2015-Apr-18 08:34N 35°27' E 139°42'2 2.3
2015-Apr-18 07:33N 35°27' E 139°39'0 0.1
2015-Apr-18 06:33N 35°27' E 139°40'0 0.0
2015-Apr-18 05:33N 35°27' E 139°40'0 0.0
2015-Apr-18 04:33N 35°27' E 139°40'1 0.7
2015-Apr-18 03:33N 35°27' E 139°40'1 1.0
2015-Apr-18 02:33N 35°28' E 139°40'0 0.0
2015-Apr-18 01:33N 35°28' E 139°40'0 0.0
2015-Apr-18 00:33N 35°28' E 139°40'0 0.0
2015-Apr-17 23:33N 35°28' E 139°40'1 0.8
2015-Apr-17 22:34N 35°28' E 139°41'  

Dump ship's entire track history